Time;durP1;ratioP1;P1;durP2;ratioP2;P2;SDS_P1;SDS_P2;PMS_P1;PMS_P2;Temp;Humidity;BMP_temperature;BMP_pressure;BME280_temperature;BME280_humidity;BME280_pressure;Samples;Min_cycle;Max_cycle;Signal;HPM_P1;HPM_P2
2024/03/19 00:00:56;;;;;;;14.98;9.20;;;9.20;99.90;;;;;;5032461;28;20542;-94
2024/03/19 00:03:21;;;;;;;14.15;8.93;;;9.20;99.90;;;;;;5028299;28;20026;-93
2024/03/19 00:05:47;;;;;;;15.25;9.30;;;9.00;99.90;;;;;;5031577;28;20449;-92
2024/03/19 00:08:13;;;;;;;11.35;8.35;;;8.90;99.90;;;;;;5034299;28;20052;-93
2024/03/19 00:10:38;;;;;;;11.82;7.78;;;8.90;99.90;;;;;;5031473;28;20062;-94
2024/03/19 00:13:04;;;;;;;14.40;8.98;;;8.90;99.90;;;;;;5031938;28;20022;-94
2024/03/19 00:15:33;;;;;;;12.45;8.93;;;8.90;99.90;;;;;;5033804;28;20198;-94
2024/03/19 00:17:58;;;;;;;12.32;8.55;;;8.80;99.90;;;;;;5035351;28;20032;-93
2024/03/19 00:20:24;;;;;;;13.43;8.80;;;8.70;99.90;;;;;;5031135;28;20030;-94
2024/03/19 00:22:49;;;;;;;13.70;8.70;;;8.70;99.90;;;;;;5031566;28;20022;-92
2024/03/19 00:25:15;;;;;;;18.33;9.77;;;8.70;99.90;;;;;;5029574;28;20029;-95
2024/03/19 00:27:41;;;;;;;13.13;8.38;;;8.60;99.90;;;;;;5032075;28;20026;-93
2024/03/19 00:30:10;;;;;;;13.25;8.65;;;8.70;99.90;;;;;;5031221;28;20045;-93
2024/03/19 00:32:37;;;;;;;13.18;8.32;;;8.70;99.90;;;;;;5025189;28;20068;-94
2024/03/19 00:35:08;;;;;;;14.07;7.97;;;8.70;99.90;;;;;;5024904;28;20067;-94
2024/03/19 00:37:37;;;;;;;15.68;9.27;;;8.70;99.90;;;;;;5026286;28;20052;-94
2024/03/19 00:40:04;;;;;;;16.05;10.18;;;8.70;99.90;;;;;;5033229;28;20032;-95
2024/03/19 00:42:31;;;;;;;14.27;10.82;;;8.70;99.90;;;;;;5026536;28;20060;-93
2024/03/19 00:44:58;;;;;;;14.32;9.45;;;8.70;99.90;;;;;;5026537;28;20036;-92
2024/03/19 00:47:24;;;;;;;11.00;7.32;;;8.60;99.90;;;;;;5030355;28;20292;-94
2024/03/19 00:49:49;;;;;;;15.00;9.25;;;8.50;99.90;;;;;;5025314;28;20033;-94
2024/03/19 00:52:16;;;;;;;11.38;8.00;;;8.40;99.90;;;;;;5029479;28;20085;-93
2024/03/19 00:54:43;;;;;;;17.40;10.75;;;8.40;99.90;;;;;;5030030;28;20029;-93
2024/03/19 00:57:08;;;;;;;17.48;10.73;;;8.40;99.90;;;;;;5035393;28;20048;-93
2024/03/19 00:59:34;;;;;;;20.27;10.68;;;8.30;99.90;;;;;;5030932;28;20057;-93
2024/03/19 01:02:00;;;;;;;14.73;8.77;;;8.30;99.90;;;;;;5033200;28;20021;-94
2024/03/19 01:04:26;;;;;;;16.15;10.20;;;8.30;99.90;;;;;;5032815;28;20032;-94
2024/03/19 01:06:51;;;;;;;16.33;10.02;;;8.30;99.90;;;;;;5028388;28;20472;-93
2024/03/19 01:09:18;;;;;;;16.27;10.25;;;8.20;99.90;;;;;;5030892;28;20034;-93
2024/03/19 01:11:46;;;;;;;17.85;10.27;;;8.20;99.90;;;;;;5029809;28;20028;-92
2024/03/19 01:14:12;;;;;;;17.10;10.75;;;8.20;99.90;;;;;;5033182;28;20029;-93
2024/03/19 01:16:38;;;;;;;15.00;10.23;;;8.20;99.90;;;;;;5027123;28;20084;-93
2024/03/19 01:19:03;;;;;;;15.68;9.77;;;8.10;99.90;;;;;;5029685;28;20076;-93
2024/03/19 01:21:29;;;;;;;13.63;8.95;;;8.00;99.90;;;;;;5026918;28;20029;-94
2024/03/19 01:23:56;;;;;;;14.18;9.65;;;8.00;99.90;;;;;;5027568;28;20048;-93
2024/03/19 01:26:22;;;;;;;14.00;8.52;;;8.00;99.90;;;;;;5031285;28;20097;-94
2024/03/19 01:28:48;;;;;;;12.63;8.65;;;7.90;99.90;;;;;;5029021;28;20034;-92
2024/03/19 01:31:14;;;;;;;13.35;7.82;;;7.90;99.90;;;;;;5028384;28;20037;-94
2024/03/19 01:33:40;;;;;;;11.18;8.05;;;7.80;99.90;;;;;;5020306;28;20033;-93
2024/03/19 01:36:06;;;;;;;11.48;8.05;;;7.80;99.90;;;;;;5027691;28;20068;-94
2024/03/19 01:38:31;;;;;;;13.25;7.78;;;7.80;99.90;;;;;;5028342;28;20565;-94
2024/03/19 01:40:57;;;;;;;10.93;7.68;;;7.70;99.90;;;;;;5027064;28;20025;-93
2024/03/19 01:43:23;;;;;;;10.02;6.82;;;7.70;99.90;;;;;;5029249;28;20089;-94
2024/03/19 01:46:06;;;;;;;10.40;5.97;;;7.70;99.90;;;;;;5028249;28;20026;-95
2024/03/19 01:48:33;;;;;;;11.30;7.70;;;7.70;99.90;;;;;;5028628;28;20018;-94
2024/03/19 01:50:59;;;;;;;9.52;6.80;;;7.70;99.90;;;;;;5027765;28;20101;-94
2024/03/19 01:53:28;;;;;;;9.90;6.05;;;7.60;99.90;;;;;;5021718;28;20069;-93
2024/03/19 01:55:55;;;;;;;12.05;6.97;;;7.60;99.90;;;;;;5030407;28;20649;-93
2024/03/19 01:58:22;;;;;;;12.48;7.30;;;7.60;99.90;;;;;;5026177;28;20057;-94
2024/03/19 02:00:48;;;;;;;11.55;7.47;;;7.50;99.90;;;;;;5021730;28;20017;-93
2024/03/19 02:03:15;;;;;;;9.88;7.05;;;7.50;99.90;;;;;;5033953;28;20018;-93
2024/03/19 02:05:47;;;;;;;9.57;6.70;;;7.50;99.90;;;;;;5027941;28;20026;-92
2024/03/19 02:08:13;;;;;;;8.23;6.68;;;7.50;99.90;;;;;;5025443;28;20025;-93
2024/03/19 02:10:39;;;;;;;9.90;6.53;;;7.40;99.90;;;;;;5022332;28;20033;-93
2024/03/19 02:13:05;;;;;;;12.88;8.02;;;7.40;99.90;;;;;;5027245;28;20032;-91
2024/03/19 02:15:31;;;;;;;9.07;5.97;;;7.50;99.90;;;;;;5028648;28;20113;-93
2024/03/19 02:17:57;;;;;;;10.52;6.63;;;7.40;99.90;;;;;;5024638;28;20787;-93
2024/03/19 02:20:23;;;;;;;11.55;6.53;;;7.40;99.90;;;;;;5026980;28;20650;-93
2024/03/19 02:22:49;;;;;;;9.85;6.43;;;7.40;99.90;;;;;;5026777;28;20017;-94
2024/03/19 02:25:16;;;;;;;9.20;6.80;;;7.40;99.90;;;;;;5029556;28;20045;-93
2024/03/19 02:27:46;;;;;;;11.20;7.00;;;7.30;99.90;;;;;;5030931;28;20018;-93
2024/03/19 02:30:12;;;;;;;9.25;6.18;;;7.40;99.90;;;;;;5029395;28;20030;-94
2024/03/19 02:32:38;;;;;;;15.82;7.57;;;7.30;99.90;;;;;;5026023;28;20034;-93
2024/03/19 02:35:04;;;;;;;17.23;9.23;;;7.30;99.90;;;;;;5023844;28;20029;-94
2024/03/19 02:37:29;;;;;;;10.95;6.30;;;7.30;99.90;;;;;;5027646;28;20065;-92
2024/03/19 02:39:55;;;;;;;10.23;6.55;;;7.30;99.90;;;;;;5022510;28;20029;-93
2024/03/19 02:42:21;;;;;;;10.20;7.00;;;7.20;99.90;;;;;;5023194;28;20083;-93
2024/03/19 02:44:47;;;;;;;11.93;7.47;;;7.20;99.90;;;;;;5025907;28;20080;-91
2024/03/19 02:47:12;;;;;;;12.77;8.27;;;7.20;99.90;;;;;;5025731;28;20026;-94
2024/03/19 02:49:38;;;;;;;8.35;6.35;;;7.20;99.90;;;;;;5028261;28;20029;-92
2024/03/19 02:52:04;;;;;;;9.50;6.15;;;7.20;99.90;;;;;;5030421;28;20508;-92
2024/03/19 02:54:30;;;;;;;10.48;6.25;;;7.10;99.90;;;;;;5024421;28;20055;-94
2024/03/19 02:56:55;;;;;;;9.70;5.95;;;7.10;99.90;;;;;;5033013;28;20112;-92
2024/03/19 02:59:21;;;;;;;8.43;6.10;;;7.10;99.90;;;;;;5026256;28;20022;-93
2024/03/19 03:01:47;;;;;;;8.88;6.28;;;7.00;99.90;;;;;;5019613;28;20029;-93
2024/03/19 03:04:12;;;;;;;9.75;6.00;;;7.00;99.90;;;;;;5034801;28;20420;-94
2024/03/19 03:06:39;;;;;;;9.93;6.63;;;6.90;99.90;;;;;;5027850;28;20022;-94
2024/03/19 03:09:06;;;;;;;9.65;6.55;;;6.90;99.90;;;;;;5031703;28;20559;-94
2024/03/19 03:11:33;;;;;;;9.75;6.35;;;6.90;99.90;;;;;;5030581;28;20041;-94
2024/03/19 03:13:58;;;;;;;9.10;6.72;;;6.90;99.90;;;;;;5031415;28;20109;-93
2024/03/19 03:16:24;;;;;;;8.57;6.20;;;6.90;99.90;;;;;;5035055;28;20081;-92
2024/03/19 03:18:50;;;;;;;9.05;5.07;;;6.90;99.90;;;;;;5031839;28;20046;-93
2024/03/19 03:21:16;;;;;;;10.63;6.88;;;6.80;99.90;;;;;;5035133;28;20033;-93
2024/03/19 03:23:42;;;;;;;8.45;5.03;;;6.80;99.90;;;;;;5031305;28;20056;-92
2024/03/19 03:26:08;;;;;;;8.18;5.43;;;6.80;99.90;;;;;;5028944;28;20068;-93
2024/03/19 03:28:34;;;;;;;7.65;4.85;;;6.80;99.90;;;;;;5034303;28;20033;-93
2024/03/19 03:31:00;;;;;;;10.05;6.30;;;6.80;99.90;;;;;;5034059;28;20033;-95
2024/03/19 03:33:26;;;;;;;7.78;5.95;;;6.70;99.90;;;;;;5027206;28;20053;-93
2024/03/19 03:35:52;;;;;;;11.13;6.00;;;6.60;99.90;;;;;;5032152;28;20021;-93
2024/03/19 03:38:18;;;;;;;9.18;6.32;;;6.60;99.90;;;;;;5033248;28;20022;-93
2024/03/19 03:40:43;;;;;;;7.00;5.30;;;6.60;99.90;;;;;;5031892;28;20041;-93
2024/03/19 03:43:09;;;;;;;7.63;5.38;;;6.60;99.90;;;;;;5032543;28;20048;-93
2024/03/19 03:45:35;;;;;;;13.13;5.40;;;6.60;99.90;;;;;;5030121;28;20112;-93
2024/03/19 03:48:00;;;;;;;7.28;4.97;;;6.60;99.90;;;;;;5030241;28;20136;-94
2024/03/19 03:50:26;;;;;;;7.40;5.32;;;6.50;99.90;;;;;;5021548;28;20037;-93
2024/03/19 03:52:51;;;;;;;11.77;6.00;;;6.40;99.90;;;;;;5030917;28;20102;-93
2024/03/19 03:55:19;;;;;;;9.07;6.05;;;6.40;99.90;;;;;;5037236;28;20037;-92
2024/03/19 03:57:45;;;;;;;9.15;4.95;;;6.20;99.90;;;;;;5033373;28;20035;-92
2024/03/19 04:00:12;;;;;;;7.72;4.82;;;6.20;99.90;;;;;;5032895;28;20528;-93
2024/03/19 04:02:45;;;;;;;8.90;5.68;;;6.20;99.90;;;;;;5034254;28;20035;-91
2024/03/19 04:05:11;;;;;;;10.63;7.85;;;6.20;99.90;;;;;;5029744;28;20025;-96
2024/03/19 04:07:41;;;;;;;9.32;5.68;;;6.10;99.90;;;;;;5031520;28;20106;-94
2024/03/19 04:10:07;;;;;;;9.88;4.85;;;6.00;99.90;;;;;;5033847;28;20078;-92
2024/03/19 04:12:33;;;;;;;9.77;6.88;;;6.10;99.90;;;;;;5029532;28;20092;-93
2024/03/19 04:14:59;;;;;;;8.63;6.20;;;6.00;99.90;;;;;;5032716;28;20391;-93
2024/03/19 04:17:24;;;;;;;9.80;5.97;;;6.00;99.90;;;;;;5027963;28;20509;-94
2024/03/19 04:19:50;;;;;;;13.05;6.50;;;5.90;99.90;;;;;;5027942;28;20033;-94
2024/03/19 04:22:16;;;;;;;8.07;5.60;;;5.80;99.90;;;;;;5033187;28;20519;-94
2024/03/19 04:24:42;;;;;;;8.85;5.88;;;5.80;99.90;;;;;;5030246;28;20404;-94
2024/03/19 04:27:08;;;;;;;7.75;5.07;;;5.70;99.90;;;;;;5037642;28;20032;-94
2024/03/19 04:29:34;;;;;;;7.75;5.18;;;5.70;99.90;;;;;;5026735;28;20032;-93
2024/03/19 04:32:01;;;;;;;8.23;5.43;;;5.70;99.90;;;;;;5032863;28;20029;-93
2024/03/19 04:34:27;;;;;;;8.55;4.72;;;5.60;99.90;;;;;;5035806;28;20025;-93
2024/03/19 04:36:52;;;;;;;8.05;4.88;;;5.60;99.90;;;;;;5031960;28;20506;-93
2024/03/19 04:39:18;;;;;;;8.60;5.68;;;5.60;99.90;;;;;;5027935;28;20030;-94
2024/03/19 04:41:44;;;;;;;7.90;5.43;;;5.60;99.90;;;;;;5032705;28;20024;-93
2024/03/19 04:44:10;;;;;;;10.90;6.47;;;5.60;99.90;;;;;;5029963;28;20026;-93
2024/03/19 04:46:35;;;;;;;7.20;5.63;;;5.70;99.90;;;;;;5026752;28;20026;-94
2024/03/19 04:49:01;;;;;;;9.10;5.45;;;5.70;99.90;;;;;;5028926;28;20032;-92
2024/03/19 04:51:27;;;;;;;8.95;6.03;;;5.60;99.90;;;;;;5032025;28;20500;-94
2024/03/19 04:53:53;;;;;;;9.10;6.00;;;5.60;99.90;;;;;;5037109;28;20045;-94
2024/03/19 04:56:22;;;;;;;10.98;6.18;;;5.60;99.90;;;;;;5038030;28;20037;-94
2024/03/19 04:58:48;;;;;;;13.10;6.75;;;5.60;99.90;;;;;;5028756;28;20396;-94
2024/03/19 05:01:16;;;;;;;12.20;7.28;;;5.70;99.90;;;;;;5037673;28;20022;-94
2024/03/19 05:03:42;;;;;;;12.60;6.93;;;5.80;99.90;;;;;;5038098;28;20028;-94
2024/03/19 05:06:08;;;;;;;12.88;6.75;;;5.80;99.90;;;;;;5029786;28;20686;-94
2024/03/19 05:08:40;;;;;;;15.43;6.50;;;5.80;99.90;;;;;;5037758;28;20447;-93
2024/03/19 05:11:06;;;;;;;15.48;7.75;;;5.80;99.90;;;;;;5029958;28;20458;-90
2024/03/19 05:13:32;;;;;;;14.13;7.78;;;5.80;99.90;;;;;;5030883;28;20045;-91
2024/03/19 05:15:58;;;;;;;14.27;7.20;;;5.80;99.90;;;;;;5031453;28;20496;-91
2024/03/19 05:18:24;;;;;;;15.05;6.90;;;5.80;99.90;;;;;;5032505;28;20022;-93
2024/03/19 05:20:50;;;;;;;14.13;8.23;;;5.80;99.90;;;;;;5032578;28;20045;-93
2024/03/19 05:23:15;;;;;;;17.23;9.15;;;5.80;99.90;;;;;;5029559;28;20026;-91
2024/03/19 05:25:44;;;;;;;20.15;9.65;;;5.80;99.90;;;;;;5032244;28;20468;-92
2024/03/19 05:28:10;;;;;;;14.38;8.93;;;5.90;99.90;;;;;;5037164;28;20113;-92
2024/03/19 05:30:36;;;;;;;15.02;8.32;;;5.80;99.90;;;;;;5029112;28;20057;-92
2024/03/19 05:33:02;;;;;;;13.43;8.45;;;5.90;99.90;;;;;;5035370;28;20515;-90
2024/03/19 05:35:27;;;;;;;10.25;7.32;;;5.90;99.90;;;;;;5034868;28;20041;-93
2024/03/19 05:37:53;;;;;;;11.85;7.65;;;5.90;99.90;;;;;;5036755;28;20025;-92
2024/03/19 05:40:20;;;;;;;10.32;7.00;;;6.00;99.90;;;;;;5035972;28;20087;-94
2024/03/19 05:42:46;;;;;;;10.68;6.90;;;5.90;99.90;;;;;;5036202;28;20059;-92
2024/03/19 05:45:12;;;;;;;10.98;7.47;;;5.90;99.90;;;;;;5032170;28;20109;-93
2024/03/19 05:47:39;;;;;;;13.45;7.47;;;5.80;99.90;;;;;;5024055;28;20029;-92
2024/03/19 05:50:05;;;;;;;12.50;6.82;;;5.80;99.90;;;;;;5016783;28;20385;-92
2024/03/19 05:52:30;;;;;;;13.85;6.63;;;5.70;99.90;;;;;;5023531;28;20026;-92
2024/03/19 05:54:56;;;;;;;11.68;6.00;;;5.70;99.90;;;;;;5015083;28;20034;-91
2024/03/19 05:57:22;;;;;;;12.15;6.88;;;5.60;99.90;;;;;;5028977;28;20049;-92
2024/03/19 05:59:48;;;;;;;11.38;7.40;;;5.50;99.90;;;;;;5032523;28;20037;-91
2024/03/19 06:02:14;;;;;;;9.40;6.53;;;5.40;99.90;;;;;;5025782;28;20083;-92
2024/03/19 06:04:39;;;;;;;14.13;7.65;;;5.40;99.90;;;;;;5035695;28;20026;-92
2024/03/19 06:07:05;;;;;;;18.95;7.93;;;5.50;99.90;;;;;;5030734;28;20549;-90
2024/03/19 06:09:31;;;;;;;12.65;8.68;;;5.40;99.90;;;;;;5036039;28;20033;-92
2024/03/19 06:11:57;;;;;;;14.00;7.18;;;5.30;99.90;;;;;;5033902;28;20080;-93
2024/03/19 06:14:23;;;;;;;10.30;6.63;;;5.40;99.90;;;;;;5033421;28;20026;-91
2024/03/19 06:16:49;;;;;;;9.55;6.20;;;5.40;99.90;;;;;;5035069;28;20025;-93
2024/03/19 06:19:15;;;;;;;11.18;6.38;;;5.50;99.90;;;;;;5032854;28;20025;-92
2024/03/19 06:21:42;;;;;;;11.13;5.82;;;5.40;99.90;;;;;;5030342;28;20021;-91
2024/03/19 06:24:08;;;;;;;10.45;5.63;;;5.50;99.90;;;;;;5020677;28;20820;-90
2024/03/19 06:26:33;;;;;;;10.05;5.32;;;5.50;99.90;;;;;;5023862;28;20040;-93
2024/03/19 06:28:59;;;;;;;9.80;6.13;;;5.60;99.90;;;;;;5023461;28;20025;-93
2024/03/19 06:31:25;;;;;;;10.23;6.45;;;5.60;99.90;;;;;;5021496;28;20833;-92
2024/03/19 06:33:51;;;;;;;9.27;6.00;;;5.70;99.90;;;;;;5022823;28;20406;-92
2024/03/19 06:36:17;;;;;;;10.40;6.63;;;5.70;99.90;;;;;;5025134;28;20037;-91
2024/03/19 06:38:43;;;;;;;10.85;7.40;;;5.70;99.90;;;;;;5024719;28;20021;-92
2024/03/19 06:41:08;;;;;;;9.65;5.55;;;5.70;99.90;;;;;;5022298;28;20033;-92
2024/03/19 06:43:35;;;;;;;10.55;5.93;;;5.90;99.90;;;;;;5024681;28;20532;-91
2024/03/19 06:46:01;;;;;;;14.85;9.25;;;5.90;99.90;;;;;;5025679;28;20014;-92
2024/03/19 06:48:28;;;;;;;14.65;10.10;;;5.90;99.90;;;;;;5022808;28;20060;-92
2024/03/19 06:50:54;;;;;;;14.35;7.00;;;5.90;99.90;;;;;;5023804;28;20032;-91
2024/03/19 06:53:21;;;;;;;13.32;5.28;;;6.00;99.90;;;;;;5024820;28;20423;-92
2024/03/19 06:55:48;;;;;;;15.23;5.70;;;6.00;99.90;;;;;;5020666;28;20476;-91
2024/03/19 06:58:13;;;;;;;12.85;6.30;;;6.00;99.90;;;;;;5022340;28;20032;-92
2024/03/19 07:00:40;;;;;;;14.75;11.75;;;6.20;99.90;;;;;;5023178;28;20435;-90
2024/03/19 07:03:06;;;;;;;12.77;8.52;;;6.20;99.90;;;;;;5023257;28;20025;-93
2024/03/19 07:05:32;;;;;;;97.95;78.75;;;6.30;99.90;;;;;;5023410;28;20025;-91
2024/03/19 07:07:58;;;;;;;10.13;6.78;;;6.40;99.90;;;;;;5024628;28;20022;-93
2024/03/19 07:10:24;;;;;;;14.40;10.25;;;6.40;99.90;;;;;;5024426;28;20052;-94
2024/03/19 07:12:51;;;;;;;9.25;5.35;;;6.50;99.90;;;;;;5023239;28;20117;-92
2024/03/19 07:15:18;;;;;;;8.20;5.63;;;6.60;99.90;;;;;;5024081;28;20079;-94
2024/03/19 07:17:49;;;;;;;9.68;5.63;;;6.70;99.90;;;;;;5024426;28;20053;-91
2024/03/19 07:20:18;;;;;;;9.38;5.20;;;6.70;99.90;;;;;;5019086;28;20097;-92
2024/03/19 07:22:44;;;;;;;8.90;6.18;;;6.80;99.90;;;;;;5024886;28;20056;-93
2024/03/19 07:25:10;;;;;;;11.45;7.53;;;6.90;99.90;;;;;;5024512;28;20543;-91
2024/03/19 07:27:42;;;;;;;9.73;6.30;;;7.00;99.90;;;;;;5023239;28;20488;-92
2024/03/19 07:30:11;;;;;;;8.38;5.13;;;7.20;99.90;;;;;;5019094;28;20037;-90
2024/03/19 07:32:40;;;;;;;9.02;5.75;;;7.10;99.90;;;;;;5024141;28;20041;-91
2024/03/19 07:35:10;;;;;;;8.88;6.68;;;7.20;99.90;;;;;;5024585;28;20152;-93
2024/03/19 07:37:37;;;;;;;8.05;4.70;;;7.30;99.90;;;;;;5022659;28;20038;-93
2024/03/19 07:40:04;;;;;;;9.27;5.57;;;7.40;99.90;;;;;;5021541;28;20041;-92
2024/03/19 07:42:30;;;;;;;8.02;5.68;;;7.50;99.90;;;;;;5022626;28;20021;-92
2024/03/19 07:44:56;;;;;;;9.73;6.32;;;7.50;99.90;;;;;;5030490;28;20222;-91
2024/03/19 07:47:22;;;;;;;10.50;5.95;;;7.60;99.90;;;;;;5023578;28;20030;-94
2024/03/19 07:49:48;;;;;;;11.18;6.30;;;7.70;99.90;;;;;;5037531;28;20026;-92
2024/03/19 07:52:16;;;;;;;9.32;5.80;;;7.80;99.90;;;;;;5037570;28;20057;-92
2024/03/19 07:54:42;;;;;;;12.98;6.20;;;7.90;99.90;;;;;;5037487;28;20109;-91
2024/03/19 07:57:08;;;;;;;11.95;6.30;;;8.00;99.90;;;;;;5027685;28;20049;-92
2024/03/19 07:59:34;;;;;;;11.00;6.72;;;8.20;99.90;;;;;;5025108;28;20033;-90
2024/03/19 08:02:00;;;;;;;12.43;7.93;;;8.20;99.90;;;;;;5027468;28;20022;-91
2024/03/19 08:04:26;;;;;;;10.90;6.10;;;8.30;99.90;;;;;;5021506;28;20172;-90
2024/03/19 08:06:52;;;;;;;15.40;8.02;;;8.30;99.90;;;;;;5026965;28;20025;-91
2024/03/19 08:09:18;;;;;;;15.13;8.05;;;8.50;99.90;;;;;;5037706;28;20032;-90
2024/03/19 08:11:44;;;;;;;15.77;8.30;;;8.60;99.90;;;;;;5028421;28;20412;-91
2024/03/19 08:14:10;;;;;;;14.75;9.50;;;8.60;99.90;;;;;;5030764;28;20076;-88
2024/03/19 08:16:36;;;;;;;12.88;7.97;;;8.70;99.90;;;;;;5030037;28;20026;-90
2024/03/19 08:21:41;;;;;;;11.30;7.68;;;8.90;99.90;;;;;;5184766;22;20053;-92
2024/03/19 08:24:06;;;;;;;11.18;6.90;;;9.00;99.90;;;;;;4986752;28;20014;-94
2024/03/19 08:26:33;;;;;;;11.60;7.68;;;9.20;99.90;;;;;;4982259;28;20034;-94
2024/03/19 08:29:00;;;;;;;10.48;7.47;;;9.30;99.90;;;;;;4981325;28;20015;-94
2024/03/19 08:31:26;;;;;;;15.68;9.38;;;9.30;99.90;;;;;;4976609;28;20121;-93
2024/03/19 08:33:52;;;;;;;12.75;8.57;;;9.30;99.90;;;;;;4982018;28;20027;-94
2024/03/19 08:36:18;;;;;;;11.52;7.32;;;9.60;99.90;;;;;;4979651;28;20026;-94
2024/03/19 08:38:44;;;;;;;12.32;8.18;;;9.70;99.90;;;;;;4991453;28;20065;-93
2024/03/19 08:41:09;;;;;;;13.02;7.50;;;9.70;99.90;;;;;;4981110;28;20408;-94
2024/03/19 08:43:35;;;;;;;13.18;7.60;;;9.80;99.90;;;;;;4981267;28;20492;-94
2024/03/19 08:46:01;;;;;;;11.88;7.22;;;9.90;99.90;;;;;;4963175;28;20025;-94
2024/03/19 08:48:26;;;;;;;12.02;8.48;;;10.10;99.90;;;;;;4987259;28;20022;-94
2024/03/19 08:50:52;;;;;;;12.05;8.80;;;10.20;99.90;;;;;;4983693;28;20066;-92
2024/03/19 08:53:18;;;;;;;11.15;8.05;;;10.30;99.90;;;;;;4986909;28;20034;-94
2024/03/19 08:55:44;;;;;;;12.15;7.90;;;10.30;99.90;;;;;;4983629;28;20025;-93
2024/03/19 08:58:09;;;;;;;10.77;7.50;;;10.30;99.90;;;;;;4984248;28;20043;-95
2024/03/19 09:00:39;;;;;;;10.70;6.82;;;10.30;99.90;;;;;;4978399;28;20058;-93
2024/03/19 09:03:08;;;;;;;12.85;8.18;;;10.40;99.90;;;;;;4979977;28;20026;-94
2024/03/19 09:05:33;;;;;;;11.93;7.05;;;10.60;99.90;;;;;;4984211;28;20075;-95
2024/03/19 09:07:59;;;;;;;12.82;6.88;;;10.60;99.90;;;;;;4992272;28;20023;-93
2024/03/19 09:10:25;;;;;;;12.23;7.40;;;10.60;99.90;;;;;;4982938;28;20029;-94
2024/03/19 09:12:50;;;;;;;10.85;7.25;;;10.60;99.90;;;;;;4980532;28;20031;-94
2024/03/19 09:15:16;;;;;;;10.52;7.82;;;10.70;99.90;;;;;;4981692;28;20046;-93
2024/03/19 09:17:42;;;;;;;10.60;7.93;;;10.80;99.90;;;;;;4981956;28;20405;-94
2024/03/19 09:20:09;;;;;;;9.75;6.85;;;10.80;99.90;;;;;;4983463;28;20027;-93
2024/03/19 09:22:35;;;;;;;;;;;11.00;99.90;;;;;;4983994;28;20166;-94
2024/03/19 09:25:02;;;;;;;10.30;7.18;;;11.10;99.90;;;;;;4985189;28;19910;-95
2024/03/19 09:27:28;;;;;;;;;;;11.30;99.90;;;;;;5003487;28;20050;-94
2024/03/19 09:29:55;;;;;;;7.82;6.22;;;11.40;99.90;;;;;;5002724;28;19906;-93
2024/03/19 09:32:21;;;;;;;9.35;5.75;;;11.60;99.90;;;;;;5003971;28;20056;-95
2024/03/19 09:34:47;;;;;;;8.32;5.35;;;11.60;99.90;;;;;;4996349;28;20049;-93
2024/03/19 09:37:12;;;;;;;8.38;5.05;;;11.90;99.90;;;;;;5002491;28;20082;-93
2024/03/19 09:39:38;;;;;;;6.18;5.03;;;12.20;99.90;;;;;;5003227;28;20031;-95
2024/03/19 09:42:16;;;;;;;6.72;5.10;;;12.40;99.90;;;;;;4977981;28;20021;-95
2024/03/19 09:44:44;;;;;;;6.82;4.50;;;12.60;99.90;;;;;;4992812;28;20023;-94
2024/03/19 09:47:17;;;;;;;5.75;4.85;;;12.80;99.90;;;;;;4988123;28;20037;-95
2024/03/19 09:49:42;;;;;;;6.68;4.90;;;13.10;99.90;;;;;;4993950;28;20023;-94
2024/03/19 09:52:08;;;;;;;6.80;4.93;;;13.30;99.90;;;;;;4987071;28;20041;-94
2024/03/19 09:54:34;;;;;;;4.95;3.97;;;13.40;99.90;;;;;;4987483;28;20061;-94
2024/03/19 09:57:03;;;;;;;6.82;4.70;;;13.60;99.90;;;;;;4986300;28;20027;-93
2024/03/19 09:59:29;;;;;;;4.70;3.95;;;13.90;99.90;;;;;;4988872;28;20053;-94
2024/03/19 10:01:55;;;;;;;5.95;3.97;;;14.10;99.90;;;;;;4984584;28;20098;-95
2024/03/19 10:04:22;;;;;;;6.43;4.78;;;14.30;99.90;;;;;;4986635;28;20030;-92
2024/03/19 10:06:48;;;;;;;7.43;4.35;;;14.40;99.90;;;;;;4992517;28;20026;-94
2024/03/19 10:09:18;;;;;;;7.70;4.45;;;14.20;99.90;;;;;;4984224;28;20038;-95
2024/03/19 10:11:47;;;;;;;5.35;3.50;;;14.20;99.90;;;;;;4983958;28;20030;-94
2024/03/19 10:14:13;;;;;;;4.38;2.65;;;14.50;99.00;;;;;;4981075;28;20030;-94
2024/03/19 10:16:43;;;;;;;6.10;3.72;;;14.80;95.00;;;;;;5000325;28;20060;-95
2024/03/19 10:19:12;;;;;;;5.35;3.10;;;15.30;92.70;;;;;;4990819;28;20038;-95
2024/03/19 10:21:44;;;;;;;13.27;5.85;;;15.40;89.60;;;;;;4985202;28;20443;-95
2024/03/19 10:24:14;;;;;;;5.13;3.90;;;15.80;88.00;;;;;;4984528;28;20034;-95
2024/03/19 10:26:40;;;;;;;5.05;3.30;;;15.50;87.50;;;;;;4967278;28;20030;-94
2024/03/19 10:29:10;;;;;;;5.68;3.10;;;15.80;85.50;;;;;;4984656;28;20031;-94
2024/03/19 10:31:36;;;;;;;5.90;3.08;;;16.20;85.80;;;;;;4984408;28;20050;-94
2024/03/19 10:34:03;;;;;;;5.72;3.50;;;16.20;87.20;;;;;;4984432;28;20030;-93
2024/03/19 10:36:35;;;;;;;7.20;6.10;;;16.40;86.60;;;;;;4983357;28;20505;-95
2024/03/19 10:39:02;;;;;;;5.47;4.55;;;16.50;85.90;;;;;;4992303;28;20046;-95
2024/03/19 10:41:30;;;;;;;5.75;4.10;;;16.60;83.60;;;;;;4983089;28;20094;-95
2024/03/19 10:44:00;;;;;;;5.18;4.07;;;16.40;82.30;;;;;;4966354;28;20065;-95
2024/03/19 10:46:29;;;;;;;5.03;4.22;;;16.00;83.80;;;;;;4982859;28;20015;-94
2024/03/19 10:48:56;;;;;;;7.78;6.97;;;15.70;84.60;;;;;;4986343;28;20038;-94
2024/03/19 10:51:24;;;;;;;5.13;3.85;;;15.70;85.30;;;;;;4995467;28;20023;-95
2024/03/19 10:53:52;;;;;;;7.72;4.40;;;15.80;87.30;;;;;;4983751;28;20246;-95
2024/03/19 10:56:19;;;;;;;5.60;3.78;;;16.00;86.60;;;;;;4978556;28;20031;-94
2024/03/19 10:58:48;;;;;;;9.20;4.15;;;16.00;87.60;;;;;;4983825;28;20094;-95
2024/03/19 11:01:17;;;;;;;6.32;4.18;;;16.00;86.20;;;;;;4981616;28;20029;-94
2024/03/19 11:03:42;;;;;;;5.53;3.58;;;16.10;83.70;;;;;;4982226;28;20019;-94
2024/03/19 11:06:22;;;;;;;8.13;3.85;;;16.20;83.00;;;;;;4964682;28;20026;-95
2024/03/19 11:08:56;;;;;;;5.60;3.92;;;16.10;81.80;;;;;;4982907;28;20027;-93
2024/03/19 11:11:35;;;;;;;6.55;4.18;;;16.30;80.80;;;;;;4987413;28;20022;-94
2024/03/19 11:14:05;;;;;;;7.03;4.90;;;16.20;80.90;;;;;;4972301;28;20107;-96
2024/03/19 11:16:39;;;;;;;6.25;4.22;;;16.30;82.30;;;;;;4973168;28;20022;-94
2024/03/19 11:19:22;;;;;;;5.45;3.88;;;16.30;83.80;;;;;;4982525;28;20041;-94
2024/03/19 11:21:58;;;;;;;6.32;3.47;;;16.50;85.20;;;;;;4988808;28;20089;-96
2024/03/19 11:24:28;;;;;;;5.32;4.15;;;16.40;82.30;;;;;;4991464;28;20034;-95
2024/03/19 11:26:57;;;;;;;7.05;4.15;;;16.50;83.50;;;;;;4991388;28;20015;-94
2024/03/19 11:29:29;;;;;;;10.90;5.38;;;16.50;83.00;;;;;;4989877;28;20091;-95
2024/03/19 11:32:01;;;;;;;5.93;4.30;;;16.40;83.20;;;;;;4979842;28;20027;-93
2024/03/19 11:34:28;;;;;;;5.90;3.50;;;16.60;83.40;;;;;;4984884;28;20059;-93
2024/03/19 11:36:58;;;;;;;6.05;4.88;;;16.50;82.60;;;;;;4960190;28;20514;-92
2024/03/19 11:39:24;;;;;;;5.43;3.95;;;16.50;80.20;;;;;;4979178;28;20022;-92
2024/03/19 11:41:50;;;;;;;10.18;4.88;;;16.90;80.60;;;;;;4978056;28;20920;-92
2024/03/19 11:44:17;;;;;;;6.50;4.05;;;17.30;80.70;;;;;;4973732;28;20023;-93
2024/03/19 11:46:43;;;;;;;6.18;4.07;;;17.40;78.60;;;;;;4974884;28;20022;-93
2024/03/19 11:49:26;;;;;;;7.15;5.30;;;17.30;76.70;;;;;;4972692;28;20031;-93
2024/03/19 11:52:03;;;;;;;9.98;5.18;;;17.00;77.20;;;;;;4972573;28;20113;-93
2024/03/19 11:54:31;;;;;;;8.48;4.95;;;17.00;77.30;;;;;;4973737;28;20058;-93
2024/03/19 11:56:57;;;;;;;5.53;3.50;;;17.60;71.40;;;;;;4969979;28;20039;-94
2024/03/19 11:59:28;;;;;;;5.20;3.72;;;17.50;75.60;;;;;;4971783;28;20050;-94
2024/03/19 12:01:56;;;;;;;9.30;4.60;;;18.10;69.50;;;;;;4973228;28;20022;-94
2024/03/19 12:04:23;;;;;;;6.75;4.07;;;17.90;71.10;;;;;;4974641;28;20114;-94
2024/03/19 12:06:49;;;;;;;5.82;3.75;;;18.20;72.90;;;;;;4974805;28;20031;-93
2024/03/19 12:09:23;;;;;;;6.65;3.80;;;18.30;72.10;;;;;;4969769;28;20605;-95
2024/03/19 12:11:50;;;;;;;5.97;3.13;;;18.50;66.70;;;;;;4969751;28;20040;-93
2024/03/19 12:14:17;;;;;;;6.45;3.22;;;18.40;66.00;;;;;;4975393;28;20035;-92
2024/03/19 12:16:44;;;;;;;7.05;3.78;;;18.40;66.60;;;;;;4973550;28;20535;-93
2024/03/19 12:19:15;;;;;;;6.10;4.70;;;18.60;69.30;;;;;;4963079;28;20077;-92
2024/03/19 12:21:41;;;;;;;5.93;3.70;;;18.90;67.50;;;;;;4975968;28;20034;-94
2024/03/19 12:24:13;;;;;;;4.25;3.05;;;18.80;64.30;;;;;;4975339;28;20057;-92
2024/03/19 12:26:43;;;;;;;6.20;4.45;;;19.10;63.60;;;;;;4970741;28;20026;-93
2024/03/19 12:29:18;;;;;;;5.55;3.22;;;19.30;63.70;;;;;;4976601;28;20034;-93
2024/03/19 12:32:02;;;;;;;4.35;3.28;;;19.30;63.30;;;;;;4969667;28;20030;-93
2024/03/19 12:37:13;;;;;;;4.97;2.75;;;19.40;63.40;;;;;;4975413;28;20604;-92
2024/03/19 12:39:40;;;;;;;5.68;2.90;;;19.60;58.50;;;;;;4973324;28;20118;-93
2024/03/19 12:42:09;;;;;;;4.82;2.13;;;20.10;59.90;;;;;;4961034;28;20039;-93
2024/03/19 12:44:35;;;;;;;5.30;2.53;;;20.10;57.50;;;;;;4969149;28;20047;-94
2024/03/19 12:47:02;;;;;;;3.80;2.38;;;20.00;54.30;;;;;;4975033;28;20034;-92
2024/03/19 12:49:28;;;;;;;;;;;20.20;53.60;;;;;;4970117;28;20571;-94
2024/03/19 12:51:53;;;;;;;7.18;2.60;;;20.30;54.70;;;;;;4971023;28;19929;-94